Cedar Park's Hourly Summary for Monday, March 13, 2017
Hour Temp
(f)
RH
(%)
Solar Rad.
(MJ/m2)
Rainfall
(in)
Wind
(mph)
3/13/2017 12:00 AM 45 100 0 0 3.52
3/13/2017 1:00 AM 45 100 0 0 3.68
3/13/2017 2:00 AM 45 100 0 0 0.15
3/13/2017 3:00 AM 46 100 0 0 2.06
3/13/2017 4:00 AM 46 100 0 0 1.19
3/13/2017 5:00 AM 46 100 0 0 0.29
3/13/2017 6:00 AM 46 100 0 0 0.97
3/13/2017 7:00 AM 46 100 0 0 1.67
3/13/2017 8:00 AM 46 100 0 0 2.35
3/13/2017 9:00 AM 46 100 0.05 0 1.08
3/13/2017 10:00 AM 47 100 0.13 0.01 1.56
3/13/2017 11:00 AM 48 100 0.63 0 1.87
3/13/2017 12:00 PM 51 99 1.53 0 3.6
3/13/2017 1:00 PM 55 71 1.57 0 4.04
3/13/2017 2:00 PM 60 55 2.79 0 5.29
3/13/2017 3:00 PM 64 50 2.62 0 5.08
3/13/2017 4:00 PM 65 48 2.57 0 4.87
3/13/2017 5:00 PM 65 47 2.13 0 4.17
3/13/2017 6:00 PM 65 45 0.72 0 3.28
3/13/2017 7:00 PM 64 44 0.1 0 2.5
3/13/2017 8:00 PM 61 45 0.03 0 0.71
3/13/2017 9:00 PM 56 66 0 0 0.12
3/13/2017 10:00 PM 51 77 0 0 0
3/13/2017 11:00 PM 48 88 0 0 0
Data Summary 52 80 14.87 0.01 2.25